Time;durP1;ratioP1;P1;durP2;ratioP2;P2;SDS_P1;SDS_P2;PMS_P1;PMS_P2;Temp;Humidity;BMP_temperature;BMP_pressure;BME280_temperature;BME280_humidity;BME280_pressure;Samples;Min_cycle;Max_cycle;Signal;HPM_P1;HPM_P2
2022/02/26 00:00:31;;;;;;;12.60;2.67;;;;;;;2.59;90.99;101783.19;5075302;28;20225;-78
2022/02/26 00:02:59;;;;;;;20.73;2.93;;;;;;;2.62;90.94;101785.88;5075808;28;20225;-79
2022/02/26 00:05:26;;;;;;;17.47;3.03;;;;;;;2.69;90.44;101798.13;5075015;28;20209;-80
2022/02/26 00:07:52;;;;;;;13.67;2.73;;;;;;;2.61;90.79;101811.59;5075520;28;20214;-79
2022/02/26 00:10:18;;;;;;;19.80;4.13;;;;;;;2.50;91.30;101806.06;5075918;28;20224;-79
2022/02/26 00:12:45;;;;;;;13.37;3.83;;;;;;;2.53;91.41;101791.56;5076492;28;20621;-79
2022/02/26 00:15:11;;;;;;;11.77;2.77;;;;;;;2.62;90.82;101805.59;5073078;28;20213;-79
2022/02/26 00:17:38;;;;;;;17.53;2.87;;;;;;;2.73;90.61;101817.16;5074720;28;20222;-80
2022/02/26 00:20:07;;;;;;;9.20;2.73;;;;;;;2.73;90.06;101835.22;5076456;28;20226;-80
2022/02/26 00:22:34;;;;;;;13.73;2.77;;;;;;;2.80;90.27;101834.63;5076965;28;20220;-79
2022/02/26 00:25:00;;;;;;;18.47;2.90;;;;;;;2.82;90.01;101845.88;5076439;28;20205;-79
2022/02/26 00:27:27;;;;;;;10.87;3.60;;;;;;;2.92;88.65;101857.41;5075603;28;20204;-77
2022/02/26 00:29:53;;;;;;;11.67;2.27;;;;;;;2.98;87.97;101876.53;5076239;28;20232;-79
2022/02/26 00:32:19;;;;;;;14.47;3.20;;;;;;;3.04;87.89;101893.94;5076096;28;20202;-80
2022/02/26 00:34:46;;;;;;;15.47;3.33;;;;;;;2.98;88.10;101906.63;5076806;28;20206;-79
2022/02/26 00:37:14;;;;;;;13.03;2.93;;;;;;;2.98;87.40;101917.78;5075350;28;20213;-78
2022/02/26 00:39:40;;;;;;;10.50;2.60;;;;;;;2.93;87.12;101928.75;5076406;28;20278;-80
2022/02/26 00:42:07;;;;;;;13.40;3.10;;;;;;;2.94;86.50;101930.53;5077818;28;20255;-78
2022/02/26 00:44:34;;;;;;;14.23;2.73;;;;;;;3.02;86.98;101942.00;5078758;28;20235;-80
2022/02/26 00:47:00;;;;;;;17.83;3.33;;;;;;;3.02;86.29;101941.13;5076633;28;20254;-80
2022/02/26 00:52:11;;;;;;;10.63;2.03;;;;;;;3.03;86.57;101948.03;5076802;28;20280;-79
2022/02/26 00:54:39;;;;;;;18.40;3.60;;;;;;;3.03;86.73;101958.34;5077472;28;20206;-80
2022/02/26 00:57:05;;;;;;;14.90;2.73;;;;;;;3.10;86.80;101965.50;5076925;28;20202;-80
2022/02/26 00:59:31;;;;;;;12.90;3.03;;;;;;;3.11;86.65;101974.97;5076365;28;20259;-80
2022/02/26 01:01:58;;;;;;;11.27;2.33;;;;;;;3.17;85.76;101976.09;5085495;28;20228;-80
2022/02/26 01:04:25;;;;;;;13.70;2.23;;;;;;;3.15;85.66;101982.00;5086677;28;20235;-80
2022/02/26 01:06:52;;;;;;;16.60;2.87;;;;;;;3.18;85.33;101998.50;5084435;28;20201;-79
2022/02/26 01:09:18;;;;;;;10.33;2.20;;;;;;;3.06;86.55;101985.16;5075474;28;20229;-80
2022/02/26 01:11:46;;;;;;;12.03;3.40;;;;;;;3.06;86.86;101973.97;5075280;28;20201;-80
2022/02/26 01:14:12;;;;;;;17.47;2.50;;;;;;;3.11;86.51;101981.03;5073310;28;20234;-80
2022/02/26 01:16:39;;;;;;;19.93;3.23;;;;;;;3.12;86.45;101984.50;5075676;28;20746;-80
2022/02/26 01:19:05;;;;;;;20.17;2.80;;;;;;;3.12;86.56;101980.22;5076183;28;20225;-81
2022/02/26 01:21:32;;;;;;;17.83;2.70;;;;;;;3.17;87.18;101976.09;5076177;28;20209;-80
2022/02/26 01:24:00;;;;;;;11.80;3.40;;;;;;;3.17;86.93;101967.47;5075761;28;20229;-80
2022/02/26 01:26:27;;;;;;;13.73;2.63;;;;;;;3.19;87.53;101960.66;5075343;28;20223;-79
2022/02/26 01:28:55;;;;;;;21.70;3.50;;;;;;;3.19;87.29;101960.66;5075500;28;20226;-80
2022/02/26 01:31:21;;;;;;;17.57;2.93;;;;;;;3.20;87.30;101969.31;5075880;28;20257;-80
2022/02/26 01:33:48;;;;;;;17.70;3.23;;;;;;;3.23;87.43;101974.56;5091469;28;20203;-79
2022/02/26 01:36:14;;;;;;;12.13;3.23;;;;;;;3.24;87.19;101984.06;5097626;28;20716;-79
2022/02/26 01:38:41;;;;;;;12.23;3.03;;;;;;;3.29;86.82;101988.56;5096773;28;20233;-78
2022/02/26 01:41:08;;;;;;;9.00;2.97;;;;;;;3.25;87.39;101985.81;5094347;28;20201;-79
2022/02/26 01:43:35;;;;;;;13.17;4.13;;;;;;;3.22;87.39;101977.97;5094924;28;20234;-78
2022/02/26 01:46:06;;;;;;;18.50;3.20;;;;;;;3.24;87.45;101971.16;5093269;28;20264;-77
2022/02/26 01:48:32;;;;;;;10.33;2.80;;;;;;;3.29;87.40;101972.19;5087054;28;20712;-79
2022/02/26 01:50:59;;;;;;;17.50;3.73;;;;;;;3.22;87.24;101973.69;5075919;28;20228;-80
2022/02/26 01:53:26;;;;;;;14.37;2.67;;;;;;;3.25;87.73;101971.22;5076286;28;20209;-79
2022/02/26 01:55:52;;;;;;;27.77;3.60;;;;;;;3.30;87.50;101985.16;5084630;28;20212;-79
2022/02/26 01:58:18;;;;;;;8.77;2.53;;;;;;;3.24;86.95;101995.25;5089390;28;20207;-80
2022/02/26 02:00:45;;;;;;;20.77;3.03;;;;;;;3.21;87.69;101989.09;5080370;28;20206;-80
2022/02/26 02:03:13;;;;;;;13.23;2.83;;;;;;;3.23;86.92;101993.53;5074262;28;20270;-80
2022/02/26 02:05:40;;;;;;;16.07;3.23;;;;;;;3.24;87.42;101992.69;5077560;28;20202;-78
2022/02/26 02:08:06;;;;;;;9.40;2.70;;;;;;;3.28;86.92;102002.28;5076638;28;20210;-81
2022/02/26 02:10:34;;;;;;;12.43;3.23;;;;;;;3.16;87.51;101994.97;5074660;28;20224;-77
2022/02/26 02:13:01;;;;;;;16.07;4.03;;;;;;;3.11;88.13;101985.31;5074533;28;20204;-78
2022/02/26 02:15:32;;;;;;;12.80;2.30;;;;;;;3.15;88.15;101982.00;5071510;28;20204;-80
2022/02/26 02:17:59;;;;;;;9.27;2.13;;;;;;;3.15;87.98;101990.66;5074270;28;20209;-80
2022/02/26 02:20:27;;;;;;;16.57;3.60;;;;;;;3.17;87.60;101995.84;5075001;28;20224;-80
2022/02/26 02:22:54;;;;;;;11.03;3.00;;;;;;;3.26;86.83;102013.38;5077794;28;20224;-80
2022/02/26 02:25:26;;;;;;;16.23;2.90;;;;;;;3.24;86.39;102022.78;5079048;28;20201;-79
2022/02/26 02:27:53;;;;;;;13.43;3.13;;;;;;;3.29;86.35;102023.78;5078338;28;20205;-79
2022/02/26 02:30:19;;;;;;;12.40;2.83;;;;;;;3.31;85.69;102030.78;5078300;28;20225;-80
2022/02/26 02:32:46;;;;;;;13.13;2.93;;;;;;;3.31;86.00;102047.97;5078098;28;20316;-79
2022/02/26 02:35:23;;;;;;;12.90;2.93;;;;;;;3.26;85.96;102041.78;5078094;28;20201;-79
2022/02/26 02:37:50;;;;;;;12.70;4.00;;;;;;;3.28;85.88;102035.84;5078159;28;20249;-79
2022/02/26 02:40:17;;;;;;;14.37;3.03;;;;;;;3.34;85.85;102050.66;5078474;28;20229;-80
2022/02/26 02:42:44;;;;;;;8.53;2.00;;;;;;;3.31;85.82;102066.94;5077852;28;20225;-79
2022/02/26 02:45:11;;;;;;;17.27;3.10;;;;;;;3.34;85.67;102074.75;5075469;28;20197;-78
2022/02/26 02:47:37;;;;;;;14.53;3.67;;;;;;;3.30;85.71;102067.72;5077230;28;20262;-79
2022/02/26 02:50:05;;;;;;;20.30;4.03;;;;;;;3.29;86.11;102070.25;5078072;28;20229;-80
2022/02/26 02:52:31;;;;;;;22.30;3.33;;;;;;;3.32;85.58;102078.13;5077872;28;20215;-77
2022/02/26 02:54:58;;;;;;;13.07;2.77;;;;;;;3.31;85.17;102094.41;5077687;28;20254;-80
2022/02/26 02:57:25;;;;;;;20.87;2.83;;;;;;;3.30;85.50;102095.25;5077630;28;20207;-79
2022/02/26 02:59:52;;;;;;;16.90;2.50;;;;;;;3.35;85.60;102098.88;5078134;28;20280;-80
2022/02/26 03:02:18;;;;;;;12.83;3.37;;;;;;;3.34;85.46;102100.56;5077228;28;20260;-80
2022/02/26 03:04:45;;;;;;;15.57;3.20;;;;;;;3.32;85.78;102099.63;5077235;28;20775;-80
2022/02/26 03:07:11;;;;;;;13.07;3.33;;;;;;;3.38;86.44;102086.09;5077090;28;20205;-80
2022/02/26 03:09:37;;;;;;;22.07;3.43;;;;;;;3.32;86.97;102085.88;5076873;28;20283;-78
2022/02/26 03:12:04;;;;;;;18.23;3.30;;;;;;;3.32;87.45;102079.00;5077368;28;20402;-80
2022/02/26 03:14:33;;;;;;;17.47;3.10;;;;;;;3.24;87.37;102071.81;5077030;28;20208;-79
2022/02/26 03:16:59;;;;;;;13.70;2.70;;;;;;;3.32;88.01;102063.50;5076148;28;20204;-80
2022/02/26 03:19:25;;;;;;;13.47;2.30;;;;;;;3.25;87.67;102061.53;5077126;28;20236;-79
2022/02/26 03:21:52;;;;;;;16.83;3.17;;;;;;;3.26;87.36;102067.56;5077386;28;20214;-79
2022/02/26 03:24:18;;;;;;;9.17;3.30;;;;;;;3.24;87.40;102066.63;5077564;28;20231;-80
2022/02/26 03:26:44;;;;;;;16.13;2.93;;;;;;;3.30;87.57;102082.34;5076774;28;20259;-80
2022/02/26 03:29:11;;;;;;;12.63;2.63;;;;;;;3.24;87.45;102080.41;5076507;28;20228;-79
2022/02/26 03:31:43;;;;;;;14.97;2.90;;;;;;;3.15;87.91;102080.97;5077262;28;20262;-80
2022/02/26 03:34:09;;;;;;;13.90;3.00;;;;;;;3.15;87.73;102080.06;5077035;28;20196;-79
2022/02/26 03:36:36;;;;;;;9.33;2.63;;;;;;;3.08;87.61;102089.28;5077372;28;20205;-79
2022/02/26 03:39:03;;;;;;;20.70;5.20;;;;;;;3.02;87.54;102068.41;5076080;28;20253;-79
2022/02/26 03:41:29;;;;;;;11.97;2.50;;;;;;;3.02;87.33;102078.72;5076560;28;20211;-79
2022/02/26 03:43:56;;;;;;;13.73;2.57;;;;;;;2.96;88.05;102081.06;5076638;28;20302;-80
2022/02/26 03:46:23;;;;;;;14.07;2.77;;;;;;;2.94;87.54;102090.44;5074485;28;20205;-79
2022/02/26 03:48:51;;;;;;;14.63;3.10;;;;;;;2.94;87.98;102090.44;5075645;28;20235;-79
2022/02/26 03:51:18;;;;;;;10.70;2.80;;;;;;;3.00;87.50;102101.00;5076405;28;20266;-79
2022/02/26 03:53:44;;;;;;;13.87;2.50;;;;;;;2.97;87.42;102106.03;5076484;28;20198;-78
2022/02/26 03:56:11;;;;;;;13.37;2.67;;;;;;;2.88;87.34;102116.00;5075938;28;20208;-79
2022/02/26 03:58:37;;;;;;;16.53;2.57;;;;;;;2.92;87.36;102107.56;5075139;28;20702;-78
2022/02/26 04:01:04;;;;;;;17.90;3.07;;;;;;;2.96;86.99;102118.06;5077149;28;20268;-79
2022/02/26 04:03:30;;;;;;;13.07;2.90;;;;;;;2.92;87.03;102135.94;5077284;28;20230;-79
2022/02/26 04:05:58;;;;;;;13.23;2.73;;;;;;;2.96;86.62;102140.41;5077691;28;20208;-79
2022/02/26 04:08:24;;;;;;;19.50;2.90;;;;;;;2.88;86.96;102147.81;5077291;28;20210;-79
2022/02/26 04:10:50;;;;;;;14.30;2.77;;;;;;;2.89;86.68;102138.38;5077505;28;20680;-78
2022/02/26 04:13:17;;;;;;;12.47;3.17;;;;;;;2.85;87.52;102133.91;5076964;28;20833;-80
2022/02/26 04:15:43;;;;;;;16.40;3.30;;;;;;;2.78;87.25;102132.81;5082024;28;20206;-79
2022/02/26 04:18:09;;;;;;;14.30;2.87;;;;;;;2.78;87.26;102123.34;5084713;28;20253;-79
2022/02/26 04:20:36;;;;;;;14.40;4.30;;;;;;;2.65;87.74;102115.06;5085609;28;20213;-79
2022/02/26 04:23:04;;;;;;;21.40;3.20;;;;;;;2.67;88.52;102126.31;5079116;28;20241;-80
2022/02/26 04:25:30;;;;;;;9.13;2.33;;;;;;;2.65;88.83;102122.81;5079163;28;20211;-79
2022/02/26 04:27:56;;;;;;;14.53;3.67;;;;;;;2.59;89.17;102116.56;5079422;28;20256;-79
2022/02/26 04:30:23;;;;;;;12.60;2.67;;;;;;;2.62;89.09;102108.09;5079347;28;20247;-80
2022/02/26 04:32:49;;;;;;;13.20;3.00;;;;;;;2.58;89.15;102107.09;5076345;28;20262;-79
2022/02/26 04:35:15;;;;;;;12.43;2.60;;;;;;;2.53;89.30;102102.56;5075934;28;20208;-78
2022/02/26 04:37:42;;;;;;;13.00;2.70;;;;;;;2.50;89.94;102105.03;5075398;28;20213;-77
2022/02/26 04:40:12;;;;;;;16.70;2.70;;;;;;;2.55;89.33;102103.50;5075652;28;20604;-79
2022/02/26 04:42:39;;;;;;;15.80;2.83;;;;;;;2.58;89.68;102106.22;5076125;28;20208;-80
2022/02/26 04:45:06;;;;;;;16.50;3.70;;;;;;;2.64;89.35;102105.59;5072152;28;20223;-78
2022/02/26 04:47:32;;;;;;;8.13;2.27;;;;;;;2.61;89.85;102110.59;5075652;28;20227;-80
2022/02/26 04:49:59;;;;;;;8.73;2.30;;;;;;;2.69;89.10;102119.53;5074681;28;20735;-77
2022/02/26 04:52:25;;;;;;;21.57;2.53;;;;;;;2.70;89.38;102126.47;5075309;28;20632;-79
2022/02/26 04:54:51;;;;;;;22.80;3.50;;;;;;;2.72;88.73;102133.44;5074824;28;20302;-80
2022/02/26 04:57:19;;;;;;;16.60;3.40;;;;;;;2.77;89.19;102128.44;5075716;28;20262;-80
2022/02/26 04:59:46;;;;;;;20.17;2.73;;;;;;;2.72;88.97;102129.97;5075054;28;20225;-81
2022/02/26 05:02:12;;;;;;;18.63;3.73;;;;;;;2.67;89.29;102128.91;5075965;28;20227;-80
2022/02/26 05:04:38;;;;;;;20.53;3.13;;;;;;;2.63;89.97;102124.44;5075316;28;20279;-80
2022/02/26 05:07:05;;;;;;;14.20;2.97;;;;;;;2.51;90.45;102110.22;5076702;28;20254;-80
2022/02/26 05:09:31;;;;;;;8.53;2.63;;;;;;;2.44;90.77;102099.59;5080355;28;20282;-77
2022/02/26 05:11:58;;;;;;;13.10;2.60;;;;;;;2.49;90.59;102098.09;5077010;28;20696;-79
2022/02/26 05:14:26;;;;;;;9.93;3.17;;;;;;;2.48;90.71;102102.38;5075868;28;20208;-80
2022/02/26 05:16:52;;;;;;;21.20;2.87;;;;;;;2.47;90.98;102104.88;5075019;28;20205;-80
2022/02/26 05:19:18;;;;;;;18.13;3.50;;;;;;;2.43;91.25;102095.28;5075157;28;20274;-79
2022/02/26 05:21:45;;;;;;;15.93;2.43;;;;;;;2.39;91.07;102097.72;5075497;28;20205;-81
2022/02/26 05:24:11;;;;;;;10.97;2.77;;;;;;;2.36;90.84;102100.19;5075438;28;20277;-81
2022/02/26 05:26:37;;;;;;;18.27;2.90;;;;;;;2.29;91.50;102098.16;5075559;28;20271;-80
2022/02/26 05:29:04;;;;;;;20.07;2.90;;;;;;;2.29;91.64;102098.16;5075204;28;20221;-80
2022/02/26 05:31:31;;;;;;;15.50;3.10;;;;;;;2.26;91.37;102095.47;5075117;28;20212;-79
2022/02/26 05:33:58;;;;;;;16.93;3.43;;;;;;;2.25;91.87;102096.25;5075300;28;20612;-80
2022/02/26 05:36:24;;;;;;;10.60;2.50;;;;;;;2.27;91.15;102096.34;5075262;28;20213;-80
2022/02/26 05:38:51;;;;;;;15.87;2.97;;;;;;;2.28;91.01;102108.38;5075012;28;20225;-80
2022/02/26 05:41:17;;;;;;;13.80;2.37;;;;;;;2.36;90.84;102107.91;5074832;28;20205;-80
2022/02/26 05:43:45;;;;;;;15.57;3.00;;;;;;;2.27;91.00;102122.97;5074467;28;20229;-78
2022/02/26 05:46:11;;;;;;;11.47;3.20;;;;;;;2.23;91.31;102121.09;5071041;28;20204;-77
2022/02/26 05:48:39;;;;;;;15.47;2.43;;;;;;;2.27;91.56;102124.69;5073802;28;20216;-79
2022/02/26 05:51:07;;;;;;;14.47;2.47;;;;;;;2.33;91.38;102130.09;5074983;28;20258;-80
2022/02/26 05:53:33;;;;;;;14.27;2.63;;;;;;;2.27;92.01;102130.69;5074834;28;20258;-79
2022/02/26 05:56:00;;;;;;;15.83;2.80;;;;;;;2.33;91.91;102141.25;5075235;28;20250;-79
2022/02/26 05:58:27;;;;;;;13.73;3.07;;;;;;;2.42;91.68;102140.78;5074589;28;20209;-78
2022/02/26 06:00:55;;;;;;;9.30;2.17;;;;;;;2.41;91.47;102151.91;5074256;28;20759;-79
2022/02/26 06:03:21;;;;;;;13.60;2.70;;;;;;;2.39;91.07;102156.97;5074260;28;20258;-78
2022/02/26 06:05:49;;;;;;;11.73;2.67;;;;;;;2.41;91.25;102153.59;5073686;28;20208;-80
2022/02/26 06:08:15;;;;;;;15.47;3.03;;;;;;;2.49;90.89;102165.09;5073994;28;20205;-79
2022/02/26 06:10:42;;;;;;;18.27;3.00;;;;;;;2.53;90.86;102179.88;5075101;28;20209;-79
2022/02/26 06:13:08;;;;;;;16.87;4.03;;;;;;;2.56;90.01;102188.63;5074878;28;20607;-80
2022/02/26 06:15:34;;;;;;;23.70;3.43;;;;;;;2.64;90.56;102193.25;5069563;28;20205;-79
2022/02/26 06:18:01;;;;;;;20.33;3.87;;;;;;;2.69;89.58;102197.75;5073684;28;20676;-79
2022/02/26 06:20:27;;;;;;;13.80;2.90;;;;;;;2.51;89.98;102205.59;5074714;28;20315;-79
2022/02/26 06:22:55;;;;;;;10.53;2.73;;;;;;;2.43;90.92;102195.78;5075139;28;20208;-79
2022/02/26 06:25:22;;;;;;;11.37;2.53;;;;;;;2.37;91.70;102181.81;5075244;28;20224;-79
2022/02/26 06:27:48;;;;;;;24.93;3.53;;;;;;;2.41;91.44;102166.50;5073958;28;20266;-79
2022/02/26 06:30:15;;;;;;;16.57;2.67;;;;;;;2.40;92.03;102165.63;5074141;28;20270;-80
2022/02/26 06:32:42;;;;;;;15.77;3.50;;;;;;;2.39;92.28;102164.72;5074410;28;20205;-80
2022/02/26 06:35:11;;;;;;;18.53;2.97;;;;;;;2.35;91.70;102169.69;5074286;28;20203;-79
2022/02/26 06:37:37;;;;;;;13.13;2.53;;;;;;;2.27;93.03;102160.75;5074352;28;20278;-80
2022/02/26 06:40:09;;;;;;;11.37;2.77;;;;;;;2.26;92.81;102149.56;5074623;28;20240;-80
2022/02/26 06:42:36;;;;;;;14.20;2.67;;;;;;;2.26;93.35;102144.41;5074814;28;20239;-81
2022/02/26 06:45:04;;;;;;;14.93;2.87;;;;;;;2.38;93.49;102144.06;5074869;28;20286;-80
2022/02/26 06:47:30;;;;;;;10.93;2.93;;;;;;;2.43;93.46;102142.53;5074458;28;20198;-79
2022/02/26 06:49:56;;;;;;;21.87;3.87;;;;;;;2.45;92.75;102148.63;5073935;28;20232;-80
2022/02/26 06:52:23;;;;;;;15.57;2.80;;;;;;;2.41;93.48;102158.75;5074824;28;20208;-79
2022/02/26 06:54:49;;;;;;;15.87;3.27;;;;;;;2.33;93.81;102150.69;5074548;28;20232;-80
2022/02/26 06:57:17;;;;;;;13.87;2.73;;;;;;;2.36;93.51;102154.28;5074487;28;20625;-80
2022/02/26 06:59:43;;;;;;;11.33;3.07;;;;;;;2.38;94.28;102154.38;5074641;28;20266;-80
2022/02/26 07:02:10;;;;;;;15.87;3.53;;;;;;;2.46;93.26;102158.13;5074373;28;20677;-80
2022/02/26 07:04:36;;;;;;;17.07;3.30;;;;;;;2.41;93.37;102163.91;5074148;28;20221;-80
2022/02/26 07:07:03;;;;;;;14.63;2.83;;;;;;;2.36;94.42;102159.44;5074316;28;20262;-80
2022/02/26 07:09:29;;;;;;;11.67;3.00;;;;;;;2.43;94.02;102160.56;5077315;28;20595;-78
2022/02/26 07:11:55;;;;;;;13.67;3.00;;;;;;;2.46;93.87;102162.38;5077974;28;20209;-79
2022/02/26 07:14:23;;;;;;;16.43;2.80;;;;;;;2.42;93.97;102166.56;5078010;28;20251;-79
2022/02/26 07:16:49;;;;;;;21.07;3.23;;;;;;;2.49;94.24;102167.69;5072409;28;20239;-79
2022/02/26 07:19:16;;;;;;;22.20;3.43;;;;;;;2.58;94.26;102170.66;5077174;28;20240;-79
2022/02/26 07:21:43;;;;;;;18.80;3.43;;;;;;;2.59;93.56;102185.28;5078776;28;20235;-80
2022/02/26 07:24:09;;;;;;;9.97;2.80;;;;;;;2.48;94.45;102195.16;5077193;28;20300;-79
2022/02/26 07:26:36;;;;;;;17.93;2.90;;;;;;;2.55;94.38;102180.81;5077399;28;20258;-79
2022/02/26 07:29:02;;;;;;;19.43;4.13;;;;;;;2.53;93.94;102190.19;5077041;28;20275;-80
2022/02/26 07:31:30;;;;;;;24.20;4.30;;;;;;;2.58;94.49;102197.31;5077184;28;20209;-80
2022/02/26 07:33:57;;;;;;;15.33;3.70;;;;;;;2.65;93.87;102197.56;5077132;28;20263;-79
2022/02/26 07:36:24;;;;;;;15.10;4.17;;;;;;;2.77;93.60;102204.13;5076769;28;20616;-80
2022/02/26 07:38:50;;;;;;;25.27;4.17;;;;;;;2.92;93.59;102209.03;5076411;28;20235;-80
2022/02/26 07:41:17;;;;;;;19.43;3.77;;;;;;;3.07;92.93;102234.59;5077751;28;20207;-80
2022/02/26 07:43:43;;;;;;;16.20;3.87;;;;;;;3.13;91.96;102262.31;5078210;28;20242;-80
2022/02/26 07:46:10;;;;;;;18.80;3.50;;;;;;;3.13;91.71;102285.53;5077857;28;20724;-80
2022/02/26 07:48:38;;;;;;;13.33;3.33;;;;;;;3.14;91.70;102297.63;5077456;28;20227;-80
2022/02/26 07:51:05;;;;;;;14.13;3.67;;;;;;;3.29;91.61;102307.69;5077770;28;20215;-81
2022/02/26 07:53:31;;;;;;;12.23;4.73;;;;;;;3.25;90.90;102332.50;5077152;28;20207;-80
2022/02/26 07:55:57;;;;;;;26.47;5.37;;;;;;;3.25;90.80;102336.75;5076211;28;20253;-80
2022/02/26 07:58:24;;;;;;;13.80;3.83;;;;;;;3.26;91.42;102330.81;5077045;28;20262;-79
2022/02/26 08:00:50;;;;;;;14.77;3.37;;;;;;;3.12;91.58;102323.34;5076946;28;20205;-80
2022/02/26 08:03:17;;;;;;;13.53;3.10;;;;;;;3.29;91.64;102318.91;5077807;28;20254;-79
2022/02/26 08:05:44;;;;;;;19.67;3.80;;;;;;;3.23;91.87;102313.50;5076548;28;20632;-79
2022/02/26 08:08:11;;;;;;;19.60;3.73;;;;;;;3.07;92.20;102306.81;5077373;28;20204;-79
2022/02/26 08:10:37;;;;;;;23.00;4.57;;;;;;;3.11;92.31;102306.13;5083785;28;20238;-78
2022/02/26 08:13:04;;;;;;;12.90;2.83;;;;;;;3.10;92.00;102318.97;5082846;28;20209;-79
2022/02/26 08:15:31;;;;;;;16.17;3.37;;;;;;;3.17;92.75;102306.38;5070622;28;20255;-80
2022/02/26 08:17:58;;;;;;;20.27;4.93;;;;;;;3.31;92.02;102308.63;5071498;28;20279;-79
2022/02/26 08:20:25;;;;;;;19.13;3.90;;;;;;;3.30;92.45;102319.78;5076079;28;20226;-79
2022/02/26 08:22:54;;;;;;;17.50;3.27;;;;;;;3.46;92.22;102327.31;5076971;28;20205;-80
2022/02/26 08:25:21;;;;;;;16.77;4.13;;;;;;;3.54;91.96;102328.50;5077026;28;20225;-79
2022/02/26 08:27:47;;;;;;;19.77;3.10;;;;;;;3.53;91.92;102339.69;5077975;28;20209;-80
2022/02/26 08:30:16;;;;;;;22.37;3.63;;;;;;;3.52;91.97;102335.31;5076860;28;20871;-80
2022/02/26 08:32:43;;;;;;;32.97;4.40;;;;;;;3.60;91.99;102334.75;5077217;28;20265;-78
2022/02/26 08:35:10;;;;;;;14.10;2.97;;;;;;;3.52;92.12;102337.91;5077540;28;20583;-78
2022/02/26 08:37:37;;;;;;;11.77;3.27;;;;;;;3.57;91.69;102335.53;5076808;28;20672;-80
2022/02/26 08:40:08;;;;;;;20.10;4.53;;;;;;;3.60;91.57;102342.50;5076669;28;20222;-80
2022/02/26 08:42:35;;;;;;;17.83;4.40;;;;;;;3.59;91.60;102351.97;5077384;28;20259;-79
2022/02/26 08:45:02;;;;;;;15.23;4.30;;;;;;;3.59;91.94;102357.13;5076962;28;20716;-80
2022/02/26 08:47:29;;;;;;;18.57;3.67;;;;;;;3.65;92.22;102347.03;5075563;28;20222;-80
2022/02/26 08:49:56;;;;;;;21.60;4.77;;;;;;;3.73;92.28;102357.69;5075643;28;20744;-82
2022/02/26 08:52:22;;;;;;;15.43;4.73;;;;;;;3.68;91.77;102367.81;5075453;28;20194;-78
2022/02/26 08:54:48;;;;;;;15.53;5.20;;;;;;;3.74;91.84;102369.75;5075872;28;20199;-80
2022/02/26 08:57:16;;;;;;;14.87;5.27;;;;;;;3.77;91.75;102370.78;5075604;28;20212;-80
2022/02/26 08:59:42;;;;;;;22.63;6.67;;;;;;;3.82;91.60;102378.69;5076129;28;20222;-78
2022/02/26 09:02:09;;;;;;;25.93;6.13;;;;;;;3.87;91.93;102392.69;5089035;28;20266;-77
2022/02/26 09:04:36;;;;;;;19.47;5.77;;;;;;;3.94;91.19;102399.88;5090474;28;20209;-77
2022/02/26 09:07:03;;;;;;;18.63;7.00;;;;;;;3.89;90.53;102418.59;5091617;28;20204;-77
2022/02/26 09:09:30;;;;;;;19.83;5.97;;;;;;;3.89;90.86;102421.16;5074064;28;20276;-78
2022/02/26 09:11:56;;;;;;;20.07;6.27;;;;;;;3.96;91.20;102411.16;5075070;28;20201;-78
2022/02/26 09:14:25;;;;;;;21.10;7.33;;;;;;;4.03;90.46;102442.41;5074456;28;20577;-79
2022/02/26 09:16:51;;;;;;;20.33;6.90;;;;;;;4.17;89.93;102449.88;5074677;28;20202;-78
2022/02/26 09:19:17;;;;;;;16.47;7.00;;;;;;;4.31;90.05;102453.00;5073630;28;20222;-77
2022/02/26 09:21:44;;;;;;;23.97;6.77;;;;;;;4.12;89.19;102477.25;5074407;28;20227;-78
2022/02/26 09:24:10;;;;;;;16.50;6.80;;;;;;;4.05;89.76;102467.47;5073581;28;20206;-78
2022/02/26 09:26:37;;;;;;;34.90;7.87;;;;;;;4.18;89.63;102480.06;5073978;28;20289;-78
2022/02/26 09:29:03;;;;;;;20.33;6.63;;;;;;;4.30;88.43;102496.88;5072923;28;20220;-76
2022/02/26 09:31:31;;;;;;;21.80;7.20;;;;;;;4.26;88.90;102497.56;5073522;28;20740;-79
2022/02/26 09:33:58;;;;;;;15.47;6.57;;;;;;;4.46;88.34;102503.53;5073482;28;20212;-78
2022/02/26 09:36:24;;;;;;;23.43;7.00;;;;;;;4.58;87.03;102522.16;5073904;28;20204;-79
2022/02/26 09:38:51;;;;;;;25.33;7.47;;;;;;;4.62;87.24;102541.22;5073786;28;20650;-79
2022/02/26 09:41:17;;;;;;;33.93;7.97;;;;;;;4.54;86.89;102547.00;5074265;28;20233;-79
2022/02/26 09:43:43;;;;;;;19.23;7.80;;;;;;;4.52;87.20;102546.06;5079193;28;20208;-77
2022/02/26 09:46:12;;;;;;;31.63;7.47;;;;;;;4.60;86.81;102567.06;5079680;28;20238;-78
2022/02/26 09:48:39;;;;;;;18.07;6.40;;;;;;;4.83;86.36;102577.41;5079224;28;20278;-76
2022/02/26 09:51:06;;;;;;;15.67;6.93;;;;;;;4.98;85.15;102616.84;5081245;28;20211;-78
2022/02/26 09:53:33;;;;;;;23.27;7.67;;;;;;;4.96;84.41;102641.78;5073354;28;20211;-79
2022/02/26 09:56:00;;;;;;;21.33;6.10;;;;;;;5.03;84.05;102650.66;5072530;28;20195;-76
2022/02/26 09:58:27;;;;;;;21.53;8.37;;;;;;;4.85;84.16;102643.06;5072049;28;20196;-78
2022/02/26 10:00:53;;;;;;;16.83;7.70;;;;;;;4.95;84.64;102634.81;5072470;28;20620;-79
2022/02/26 10:03:28;;;;;;;15.57;7.33;;;;;;;5.04;83.59;102648.16;5073151;28;20199;-78
2022/02/26 10:06:07;;;;;;;17.97;7.33;;;;;;;4.93;82.85;102670.13;5073095;28;20272;-77
2022/02/26 10:08:38;;;;;;;22.30;7.33;;;;;;;4.96;82.56;102699.59;5072382;28;20218;-77
2022/02/26 10:11:05;;;;;;;17.73;7.17;;;;;;;4.93;82.39;102703.75;5072279;28;20252;-78
2022/02/26 10:13:39;;;;;;;15.23;6.10;;;;;;;5.01;82.66;102698.91;5072065;28;20194;-78
2022/02/26 10:16:06;;;;;;;18.07;8.63;;;;;;;5.12;83.70;102695.91;5072243;28;20222;-77
2022/02/26 10:18:33;;;;;;;16.17;6.60;;;;;;;5.05;82.86;102696.47;5071026;28;20219;-78
2022/02/26 10:21:02;;;;;;;15.47;6.10;;;;;;;4.79;83.05;102705.78;5071449;28;20559;-77
2022/02/26 10:23:30;;;;;;;21.17;7.43;;;;;;;4.63;83.84;102688.75;5072644;28;20239;-78
2022/02/26 10:26:07;;;;;;;21.93;6.93;;;;;;;4.85;82.95;102693.09;5069953;28;20277;-78
2022/02/26 10:28:34;;;;;;;17.20;7.03;;;;;;;4.90;81.76;102720.06;5074103;28;20280;-79
2022/02/26 10:31:05;;;;;;;21.80;7.10;;;;;;;5.03;81.75;102736.09;5073959;28;20214;-79
2022/02/26 10:33:31;;;;;;;10.57;5.40;;;;;;;5.15;82.12;102739.16;5074392;28;20228;-78
2022/02/26 10:35:59;;;;;;;12.03;6.93;;;;;;;5.09;81.81;102739.78;5074737;28;20221;-79
2022/02/26 10:38:28;;;;;;;25.50;6.80;;;;;;;5.00;83.04;102717.84;5073100;28;20195;-79
2022/02/26 10:41:00;;;;;;;19.73;6.20;;;;;;;5.20;82.75;102704.00;5074499;28;20206;-77
2022/02/26 10:43:49;;;;;;;15.00;6.70;;;;;;;5.30;81.36;102747.56;5077041;28;20198;-78
2022/02/26 10:46:20;;;;;;;12.87;5.90;;;;;;;5.49;81.50;102754.38;5075750;28;20709;-79
2022/02/26 10:48:48;;;;;;;11.27;4.97;;;;;;;5.67;81.68;102749.00;5077467;28;20319;-79
2022/02/26 10:51:16;;;;;;;22.67;6.30;;;;;;;5.72;79.76;102777.69;5076145;28;20212;-79
2022/02/26 10:53:42;;;;;;;14.73;5.83;;;;;;;5.62;79.12;102809.25;5078719;28;20198;-79
2022/02/26 10:56:11;;;;;;;11.97;5.57;;;;;;;5.51;79.08;102819.16;5078814;28;20213;-80
2022/02/26 10:58:37;;;;;;;16.30;6.20;;;;;;;5.54;79.21;102819.28;5074699;28;20947;-79
2022/02/26 11:01:06;;;;;;;11.60;5.23;;;;;;;5.81;79.29;102814.34;5077742;28;20248;-79
2022/02/26 11:03:33;;;;;;;13.17;4.63;;;;;;;6.01;78.04;102832.41;5077617;28;20195;-79
2022/02/26 11:06:18;;;;;;;11.57;4.80;;;;;;;6.16;76.96;102858.91;5080241;28;20229;-79
2022/02/26 11:08:46;;;;;;;19.27;5.20;;;;;;;5.88;76.14;102885.44;5077167;28;20280;-78
2022/02/26 11:11:13;;;;;;;17.57;7.63;;;;;;;5.70;76.38;102882.97;5076858;28;20207;-79
2022/02/26 11:13:40;;;;;;;11.17;4.87;;;;;;;5.76;76.79;102886.69;5077437;28;20208;-79
2022/02/26 11:16:07;;;;;;;14.20;5.00;;;;;;;5.36;76.98;102899.72;5078234;28;20229;-79
2022/02/26 11:18:40;;;;;;;17.03;5.23;;;;;;;5.26;78.32;102859.59;5076941;28;20227;-79
2022/02/26 11:21:09;;;;;;;12.93;4.93;;;;;;;5.25;78.04;102838.81;5077818;28;20237;-80
2022/02/26 11:23:36;;;;;;;20.57;4.57;;;;;;;5.41;79.14;102832.56;5078588;28;20207;-79
2022/02/26 11:26:03;;;;;;;17.03;5.60;;;;;;;5.59;79.09;102833.34;5077671;28;20228;-79
2022/02/26 11:28:33;;;;;;;17.33;5.73;;;;;;;5.77;78.47;102853.91;5077614;28;20208;-79